sensor_id;sensor_type;location;lat;lon;timestamp;pressure;altitude;pressure_sealevel;temperature;humidity
18790;BME280;9523;42.650;23.386;2022-09-03T00:01:18;94623.47;;;16.27;100.00
18790;BME280;9523;42.650;23.386;2022-09-03T00:03:50;94615.03;;;16.17;100.00
18790;BME280;9523;42.650;23.386;2022-09-03T00:06:22;94622.84;;;16.22;100.00
18790;BME280;9523;42.650;23.386;2022-09-03T00:08:54;94606.75;;;16.18;100.00
18790;BME280;9523;42.650;23.386;2022-09-03T00:11:28;94618.56;;;16.29;100.00
18790;BME280;9523;42.650;23.386;2022-09-03T00:13:59;94626.63;;;16.21;100.00
18790;BME280;9523;42.650;23.386;2022-09-03T00:16:34;94627.53;;;16.25;100.00
18790;BME280;9523;42.650;23.386;2022-09-03T00:19:06;94622.06;;;16.21;100.00
18790;BME280;9523;42.650;23.386;2022-09-03T00:21:37;94629.78;;;16.14;100.00
18790;BME280;9523;42.650;23.386;2022-09-03T00:24:08;94632.44;;;16.14;100.00
18790;BME280;9523;42.650;23.386;2022-09-03T00:26:38;94637.47;;;16.16;100.00
18790;BME280;9523;42.650;23.386;2022-09-03T00:29:10;94622.53;;;16.23;100.00
18790;BME280;9523;42.650;23.386;2022-09-03T00:31:44;94624.41;;;16.23;100.00
18790;BME280;9523;42.650;23.386;2022-09-03T00:34:15;94625.91;;;16.12;100.00
18790;BME280;9523;42.650;23.386;2022-09-03T00:36:46;94624.94;;;16.16;100.00
18790;BME280;9523;42.650;23.386;2022-09-03T00:39:17;94622.81;;;16.30;100.00
18790;BME280;9523;42.650;23.386;2022-09-03T00:41:54;94623.53;;;16.10;100.00
18790;BME280;9523;42.650;23.386;2022-09-03T00:44:56;94625.06;;;16.20;100.00
18790;BME280;9523;42.650;23.386;2022-09-03T00:47:33;94624.72;;;16.21;100.00
18790;BME280;9523;42.650;23.386;2022-09-03T00:50:10;94624.19;;;16.07;100.00
18790;BME280;9523;42.650;23.386;2022-09-03T00:52:45;94627.31;;;16.09;100.00
18790;BME280;9523;42.650;23.386;2022-09-03T00:55:24;94626.84;;;16.07;100.00
18790;BME280;9523;42.650;23.386;2022-09-03T00:58:02;94629.00;;;16.14;100.00
18790;BME280;9523;42.650;23.386;2022-09-03T01:00:34;94626.22;;;16.10;100.00
18790;BME280;9523;42.650;23.386;2022-09-03T01:03:06;94624.28;;;16.19;100.00
18790;BME280;9523;42.650;23.386;2022-09-03T01:05:56;94624.41;;;16.23;100.00
18790;BME280;9523;42.650;23.386;2022-09-03T01:08:40;94624.28;;;16.19;100.00
18790;BME280;9523;42.650;23.386;2022-09-03T01:11:22;94622.19;;;16.04;100.00
18790;BME280;9523;42.650;23.386;2022-09-03T01:13:56;94620.66;;;16.24;100.00
18790;BME280;9523;42.650;23.386;2022-09-03T01:16:35;94622.19;;;16.25;100.00
18790;BME280;9523;42.650;23.386;2022-09-03T01:19:16;94621.94;;;16.18;100.00
18790;BME280;9523;42.650;23.386;2022-09-03T01:22:05;94616.31;;;16.19;100.00
18790;BME280;9523;42.650;23.386;2022-09-03T01:25:04;94604.00;;;16.06;100.00
18790;BME280;9523;42.650;23.386;2022-09-03T01:27:40;94617.41;;;16.18;100.00
18790;BME280;9523;42.650;23.386;2022-09-03T01:30:13;94629.97;;;16.09;100.00
18790;BME280;9523;42.650;23.386;2022-09-03T01:32:47;94631.34;;;15.86;100.00
18790;BME280;9523;42.650;23.386;2022-09-03T01:35:24;94646.31;;;15.99;100.00
18790;BME280;9523;42.650;23.386;2022-09-03T01:38:09;94646.09;;;15.75;100.00
18790;BME280;9523;42.650;23.386;2022-09-03T01:40:52;94654.84;;;15.75;100.00
18790;BME280;9523;42.650;23.386;2022-09-03T01:43:47;94651.47;;;15.58;100.00
18790;BME280;9523;42.650;23.386;2022-09-03T01:46:23;94659.09;;;15.68;100.00
18790;BME280;9523;42.650;23.386;2022-09-03T01:48:56;94654.25;;;15.70;100.00
18790;BME280;9523;42.650;23.386;2022-09-03T01:51:27;94643.63;;;15.61;100.00
18790;BME280;9523;42.650;23.386;2022-09-03T01:54:22;94640.81;;;15.66;100.00
18790;BME280;9523;42.650;23.386;2022-09-03T01:57:13;94652.66;;;15.69;100.00
18790;BME280;9523;42.650;23.386;2022-09-03T01:59:48;94635.19;;;15.68;100.00
18790;BME280;9523;42.650;23.386;2022-09-03T02:02:22;94642.69;;;15.66;100.00
18790;BME280;9523;42.650;23.386;2022-09-03T02:05:01;94644.06;;;15.72;100.00
18790;BME280;9523;42.650;23.386;2022-09-03T02:07:36;94641.69;;;15.79;100.00
18790;BME280;9523;42.650;23.386;2022-09-03T02:10:06;94639.19;;;15.82;100.00
18790;BME280;9523;42.650;23.386;2022-09-03T02:12:35;94642.47;;;15.79;100.00
18790;BME280;9523;42.650;23.386;2022-09-03T02:15:05;94644.63;;;15.86;100.00
18790;BME280;9523;42.650;23.386;2022-09-03T02:17:35;94640.53;;;15.88;100.00
18790;BME280;9523;42.650;23.386;2022-09-03T02:20:05;94659.34;;;15.92;100.00
18790;BME280;9523;42.650;23.386;2022-09-03T02:22:36;94617.94;;;15.74;100.00
18790;BME280;9523;42.650;23.386;2022-09-03T02:25:05;94658.53;;;16.00;100.00
18790;BME280;9523;42.650;23.386;2022-09-03T02:27:32;94655.28;;;15.86;100.00
18790;BME280;9523;42.650;23.386;2022-09-03T02:29:59;94656.03;;;15.95;100.00
18790;BME280;9523;42.650;23.386;2022-09-03T02:32:26;94648.53;;;15.88;100.00
18790;BME280;9523;42.650;23.386;2022-09-03T02:34:55;94661.22;;;15.91;100.00
18790;BME280;9523;42.650;23.386;2022-09-03T02:37:22;94656.09;;;15.78;100.00
18790;BME280;9523;42.650;23.386;2022-09-03T02:39:49;94655.56;;;15.93;100.00
18790;BME280;9523;42.650;23.386;2022-09-03T02:42:17;94653.34;;;16.04;100.00
18790;BME280;9523;42.650;23.386;2022-09-03T02:44:48;94651.63;;;15.99;100.00
18790;BME280;9523;42.650;23.386;2022-09-03T02:47:15;94660.06;;;16.01;100.00
18790;BME280;9523;42.650;23.386;2022-09-03T02:49:45;94647.28;;;15.86;100.00
18790;BME280;9523;42.650;23.386;2022-09-03T02:52:13;94640.00;;;15.66;100.00
18790;BME280;9523;42.650;23.386;2022-09-03T02:54:40;94668.94;;;15.76;100.00
18790;BME280;9523;42.650;23.386;2022-09-03T02:57:12;94673.63;;;15.79;100.00
18790;BME280;9523;42.650;23.386;2022-09-03T02:59:39;94674.41;;;15.79;100.00
18790;BME280;9523;42.650;23.386;2022-09-03T03:02:08;94678.31;;;15.73;100.00
18790;BME280;9523;42.650;23.386;2022-09-03T03:04:36;94673.03;;;15.65;100.00
18790;BME280;9523;42.650;23.386;2022-09-03T03:07:03;94674.28;;;15.67;100.00
18790;BME280;9523;42.650;23.386;2022-09-03T03:09:32;94669.88;;;15.80;100.00
18790;BME280;9523;42.650;23.386;2022-09-03T03:11:59;94668.13;;;15.84;100.00
18790;BME280;9523;42.650;23.386;2022-09-03T03:14:26;94668.84;;;15.93;100.00
18790;BME280;9523;42.650;23.386;2022-09-03T03:16:53;94663.69;;;15.96;100.00
18790;BME280;9523;42.650;23.386;2022-09-03T03:19:20;94660.72;;;15.98;100.00
18790;BME280;9523;42.650;23.386;2022-09-03T03:21:47;94659.03;;;15.85;100.00
18790;BME280;9523;42.650;23.386;2022-09-03T03:24:13;94653.25;;;15.83;100.00
18790;BME280;9523;42.650;23.386;2022-09-03T03:26:42;94656.38;;;15.85;100.00
18790;BME280;9523;42.650;23.386;2022-09-03T03:29:14;94649.84;;;15.74;100.00
18790;BME280;9523;42.650;23.386;2022-09-03T03:31:41;94660.00;;;15.80;100.00
18790;BME280;9523;42.650;23.386;2022-09-03T03:34:08;94655.28;;;15.86;100.00
18790;BME280;9523;42.650;23.386;2022-09-03T03:36:35;94613.34;;;15.36;100.00
18790;BME280;9523;42.650;23.386;2022-09-03T03:39:02;94667.09;;;15.68;100.00
18790;BME280;9523;42.650;23.386;2022-09-03T03:41:30;94667.81;;;15.77;100.00
18790;BME280;9523;42.650;23.386;2022-09-03T03:44:00;94665.34;;;15.72;100.00
18790;BME280;9523;42.650;23.386;2022-09-03T03:46:30;94668.63;;;15.69;100.00
18790;BME280;9523;42.650;23.386;2022-09-03T03:48:57;94656.91;;;15.70;100.00
18790;BME280;9523;42.650;23.386;2022-09-03T03:51:25;94653.13;;;15.79;100.00
18790;BME280;9523;42.650;23.386;2022-09-03T03:53:53;94659.22;;;15.80;100.00
18790;BME280;9523;42.650;23.386;2022-09-03T03:56:22;94658.59;;;15.83;100.00
18790;BME280;9523;42.650;23.386;2022-09-03T03:58:49;94660.75;;;15.89;100.00
18790;BME280;9523;42.650;23.386;2022-09-03T04:01:19;94669.91;;;16.01;100.00
18790;BME280;9523;42.650;23.386;2022-09-03T04:03:46;94672.28;;;16.02;100.00
18790;BME280;9523;42.650;23.386;2022-09-03T04:06:14;94682.28;;;16.05;100.00
18790;BME280;9523;42.650;23.386;2022-09-03T04:08:43;94670.44;;;15.94;100.00
18790;BME280;9523;42.650;23.386;2022-09-03T04:11:11;94668.06;;;15.92;100.00
18790;BME280;9523;42.650;23.386;2022-09-03T04:13:43;94657.66;;;15.79;100.00
18790;BME280;9523;42.650;23.386;2022-09-03T04:16:11;94664.22;;;15.81;100.00
18790;BME280;9523;42.650;23.386;2022-09-03T04:18:41;94672.94;;;15.90;100.00
18790;BME280;9523;42.650;23.386;2022-09-03T04:21:09;94676.13;;;15.84;100.00
18790;BME280;9523;42.650;23.386;2022-09-03T04:23:39;94667.78;;;15.85;100.00
18790;BME280;9523;42.650;23.386;2022-09-03T04:26:08;94684.53;;;15.86;100.00
18790;BME280;9523;42.650;23.386;2022-09-03T04:28:35;94665.13;;;15.85;100.00
18790;BME280;9523;42.650;23.386;2022-09-03T04:31:03;94674.25;;;15.76;100.00
18790;BME280;9523;42.650;23.386;2022-09-03T04:33:30;94680.75;;;15.95;100.00
18790;BME280;9523;42.650;23.386;2022-09-03T04:36:04;94663.13;;;15.82;100.00
18790;BME280;9523;42.650;23.386;2022-09-03T04:38:31;94687.69;;;15.88;100.00
18790;BME280;9523;42.650;23.386;2022-09-03T04:40:58;94682.16;;;15.93;100.00
18790;BME280;9523;42.650;23.386;2022-09-03T04:43:25;94692.78;;;16.02;100.00
18790;BME280;9523;42.650;23.386;2022-09-03T04:45:55;94700.78;;;15.93;100.00
18790;BME280;9523;42.650;23.386;2022-09-03T04:48:23;94705.03;;;15.85;100.00
18790;BME280;9523;42.650;23.386;2022-09-03T04:50:50;94707.72;;;15.77;100.00
18790;BME280;9523;42.650;23.386;2022-09-03T04:53:18;94698.06;;;15.72;100.00
18790;BME280;9523;42.650;23.386;2022-09-03T04:55:45;94711.78;;;15.83;100.00
18790;BME280;9523;42.650;23.386;2022-09-03T04:58:12;94716.75;;;15.93;100.00
18790;BME280;9523;42.650;23.386;2022-09-03T05:00:39;94718.16;;;15.99;100.00
18790;BME280;9523;42.650;23.386;2022-09-03T05:03:05;94719.38;;;16.02;100.00
18790;BME280;9523;42.650;23.386;2022-09-03T05:05:33;94728.00;;;16.07;100.00
18790;BME280;9523;42.650;23.386;2022-09-03T05:08:00;94722.25;;;15.88;100.00
18790;BME280;9523;42.650;23.386;2022-09-03T05:10:29;94655.38;;;15.43;100.00
18790;BME280;9523;42.650;23.386;2022-09-03T05:13:00;94725.03;;;16.00;100.00
18790;BME280;9523;42.650;23.386;2022-09-03T05:15:27;94737.22;;;16.01;100.00
18790;BME280;9523;42.650;23.386;2022-09-03T05:17:56;94712.72;;;15.87;100.00
18790;BME280;9523;42.650;23.386;2022-09-03T05:20:22;94727.22;;;15.98;100.00
18790;BME280;9523;42.650;23.386;2022-09-03T05:22:50;94732.69;;;16.02;100.00
18790;BME280;9523;42.650;23.386;2022-09-03T05:25:17;94732.09;;;15.96;100.00
18790;BME280;9523;42.650;23.386;2022-09-03T05:27:45;94730.00;;;16.10;100.00
18790;BME280;9523;42.650;23.386;2022-09-03T05:30:12;94727.63;;;16.17;100.00
18790;BME280;9523;42.650;23.386;2022-09-03T05:32:39;94728.78;;;16.08;100.00
18790;BME280;9523;42.650;23.386;2022-09-03T05:35:07;94726.81;;;16.25;100.00
18790;BME280;9523;42.650;23.386;2022-09-03T05:37:35;94723.66;;;16.32;100.00
18790;BME280;9523;42.650;23.386;2022-09-03T05:40:02;94727.38;;;16.39;100.00
18790;BME280;9523;42.650;23.386;2022-09-03T05:42:29;94733.16;;;16.41;100.00
18790;BME280;9523;42.650;23.386;2022-09-03T05:45:01;94733.66;;;16.35;100.00
18790;BME280;9523;42.650;23.386;2022-09-03T05:47:27;94738.03;;;16.39;100.00
18790;BME280;9523;42.650;23.386;2022-09-03T05:49:55;94736.78;;;16.37;100.00
18790;BME280;9523;42.650;23.386;2022-09-03T05:52:22;94757.34;;;16.28;100.00
18790;BME280;9523;42.650;23.386;2022-09-03T05:54:49;94747.38;;;16.16;100.00
18790;BME280;9523;42.650;23.386;2022-09-03T05:57:15;94724.66;;;16.19;100.00
18790;BME280;9523;42.650;23.386;2022-09-03T05:59:42;94747.22;;;16.51;100.00
18790;BME280;9523;42.650;23.386;2022-09-03T06:02:10;94741.25;;;16.54;100.00
18790;BME280;9523;42.650;23.386;2022-09-03T06:04:37;94751.09;;;16.62;100.00
18790;BME280;9523;42.650;23.386;2022-09-03T06:07:04;94753.34;;;16.51;100.00
18790;BME280;9523;42.650;23.386;2022-09-03T06:09:31;94755.44;;;16.75;100.00
18790;BME280;9523;42.650;23.386;2022-09-03T06:11:58;94756.13;;;16.84;100.00
18790;BME280;9523;42.650;23.386;2022-09-03T06:14:25;94754.59;;;16.83;100.00
18790;BME280;9523;42.650;23.386;2022-09-03T06:16:51;94767.19;;;16.74;100.00
18790;BME280;9523;42.650;23.386;2022-09-03T06:19:21;94758.78;;;16.63;100.00
18790;BME280;9523;42.650;23.386;2022-09-03T06:21:48;94756.34;;;16.79;100.00
18790;BME280;9523;42.650;23.386;2022-09-03T06:24:16;94751.34;;;16.98;100.00
18790;BME280;9523;42.650;23.386;2022-09-03T06:26:44;94746.53;;;17.12;100.00
18790;BME280;9523;42.650;23.386;2022-09-03T06:29:11;94752.78;;;17.37;100.00
18790;BME280;9523;42.650;23.386;2022-09-03T06:31:38;94749.47;;;17.40;100.00
18790;BME280;9523;42.650;23.386;2022-09-03T06:34:05;94758.25;;;17.41;100.00
18790;BME280;9523;42.650;23.386;2022-09-03T06:36:34;94770.09;;;17.31;100.00
18790;BME280;9523;42.650;23.386;2022-09-03T06:39:01;94759.94;;;17.24;100.00
18790;BME280;9523;42.650;23.386;2022-09-03T06:41:29;94769.56;;;17.17;100.00
18790;BME280;9523;42.650;23.386;2022-09-03T06:44:01;94770.41;;;17.29;100.00
18790;BME280;9523;42.650;23.386;2022-09-03T06:46:29;94763.97;;;17.30;100.00
18790;BME280;9523;42.650;23.386;2022-09-03T06:48:56;94751.81;;;17.42;100.00
18790;BME280;9523;42.650;23.386;2022-09-03T06:51:25;94765.88;;;17.71;100.00
18790;BME280;9523;42.650;23.386;2022-09-03T06:53:57;94768.22;;;17.85;100.00
18790;BME280;9523;42.650;23.386;2022-09-03T06:56:25;94764.72;;;18.05;100.00
18790;BME280;9523;42.650;23.386;2022-09-03T06:58:53;94772.94;;;18.00;100.00
18790;BME280;9523;42.650;23.386;2022-09-03T07:01:22;94770.75;;;18.14;100.00
18790;BME280;9523;42.650;23.386;2022-09-03T07:03:53;94771.13;;;17.92;100.00
18790;BME280;9523;42.650;23.386;2022-09-03T07:06:22;94772.75;;;18.05;100.00
18790;BME280;9523;42.650;23.386;2022-09-03T07:08:50;94778.72;;;17.90;100.00
18790;BME280;9523;42.650;23.386;2022-09-03T07:11:20;94763.31;;;17.75;100.00
18790;BME280;9523;42.650;23.386;2022-09-03T07:13:52;94780.78;;;17.84;100.00
18790;BME280;9523;42.650;23.386;2022-09-03T07:16:21;94775.69;;;17.92;100.00
18790;BME280;9523;42.650;23.386;2022-09-03T07:18:49;94773.19;;;18.07;100.00
18790;BME280;9523;42.650;23.386;2022-09-03T07:21:18;94782.25;;;18.27;100.00
18790;BME280;9523;42.650;23.386;2022-09-03T07:23:45;94784.38;;;18.34;100.00
18790;BME280;9523;42.650;23.386;2022-09-03T07:26:16;94780.25;;;18.48;100.00
18790;BME280;9523;42.650;23.386;2022-09-03T07:28:45;94795.13;;;18.82;100.00
18790;BME280;9523;42.650;23.386;2022-09-03T07:31:15;94790.19;;;18.84;100.00
18790;BME280;9523;42.650;23.386;2022-09-03T07:33:44;94803.56;;;19.08;100.00
18790;BME280;9523;42.650;23.386;2022-09-03T07:36:12;94795.22;;;18.98;100.00
18790;BME280;9523;42.650;23.386;2022-09-03T07:38:40;94795.31;;;19.13;100.00
18790;BME280;9523;42.650;23.386;2022-09-03T07:41:09;94796.59;;;19.32;100.00
18790;BME280;9523;42.650;23.386;2022-09-03T07:43:37;94807.25;;;18.80;100.00
18790;BME280;9523;42.650;23.386;2022-09-03T07:46:06;94798.44;;;18.91;100.00
18790;BME280;9523;42.650;23.386;2022-09-03T07:48:33;94792.19;;;18.87;100.00
18790;BME280;9523;42.650;23.386;2022-09-03T07:51:00;94797.75;;;19.31;100.00
18790;BME280;9523;42.650;23.386;2022-09-03T07:53:27;94795.50;;;19.45;100.00
18790;BME280;9523;42.650;23.386;2022-09-03T07:56:00;94794.44;;;19.61;100.00
18790;BME280;9523;42.650;23.386;2022-09-03T07:58:28;94797.66;;;19.67;100.00
18790;BME280;9523;42.650;23.386;2022-09-03T08:00:55;94801.75;;;19.77;100.00
18790;BME280;9523;42.650;23.386;2022-09-03T08:03:24;94794.22;;;19.94;100.00
18790;BME280;9523;42.650;23.386;2022-09-03T08:05:51;94806.28;;;19.88;100.00
18790;BME280;9523;42.650;23.386;2022-09-03T08:08:18;94794.63;;;19.68;100.00
18790;BME280;9523;42.650;23.386;2022-09-03T08:10:45;94789.91;;;19.38;100.00
18790;BME280;9523;42.650;23.386;2022-09-03T08:13:12;94805.16;;;19.61;100.00
18790;BME280;9523;42.650;23.386;2022-09-03T08:15:39;94809.50;;;19.94;100.00
18790;BME280;9523;42.650;23.386;2022-09-03T08:18:07;94815.91;;;19.49;100.00
18790;BME280;9523;42.650;23.386;2022-09-03T08:20:37;94808.66;;;19.50;100.00
18790;BME280;9523;42.650;23.386;2022-09-03T08:23:04;94802.72;;;19.84;100.00
18790;BME280;9523;42.650;23.386;2022-09-03T08:25:31;94807.88;;;20.05;100.00
18790;BME280;9523;42.650;23.386;2022-09-03T08:27:58;94798.22;;;20.16;100.00
18790;BME280;9523;42.650;23.386;2022-09-03T08:30:26;94803.06;;;20.54;100.00
18790;BME280;9523;42.650;23.386;2022-09-03T08:32:53;94796.44;;;20.98;100.00
18790;BME280;9523;42.650;23.386;2022-09-03T08:35:21;94800.69;;;21.15;100.00
18790;BME280;9523;42.650;23.386;2022-09-03T08:37:49;94791.59;;;21.20;99.65
18790;BME280;9523;42.650;23.386;2022-09-03T08:40:19;94804.19;;;21.54;99.67
18790;BME280;9523;42.650;23.386;2022-09-03T08:42:59;94803.00;;;21.51;93.75
18790;BME280;9523;42.650;23.386;2022-09-03T08:45:33;94801.69;;;21.61;93.33
18790;BME280;9523;42.650;23.386;2022-09-03T08:48:04;94794.44;;;21.46;91.89
18790;BME280;9523;42.650;23.386;2022-09-03T08:50:37;94798.22;;;21.80;89.42
18790;BME280;9523;42.650;23.386;2022-09-03T08:53:12;94808.31;;;22.25;85.87
18790;BME280;9523;42.650;23.386;2022-09-03T08:55:49;94802.19;;;22.47;82.44
18790;BME280;9523;42.650;23.386;2022-09-03T08:58:18;94794.13;;;22.92;81.85
18790;BME280;9523;42.650;23.386;2022-09-03T09:00:51;94802.88;;;23.12;78.18
18790;BME280;9523;42.650;23.386;2022-09-03T09:03:42;94800.56;;;22.65;79.97
18790;BME280;9523;42.650;23.386;2022-09-03T09:06:20;94793.44;;;22.73;83.39
18790;BME280;9523;42.650;23.386;2022-09-03T09:09:01;94805.09;;;23.07;80.14
18790;BME280;9523;42.650;23.386;2022-09-03T09:11:39;94800.34;;;22.97;80.18
18790;BME280;9523;42.650;23.386;2022-09-03T09:14:18;94804.78;;;22.01;83.76
18790;BME280;9523;42.650;23.386;2022-09-03T09:16:52;94800.97;;;22.02;86.47
18790;BME280;9523;42.650;23.386;2022-09-03T09:19:34;94807.06;;;21.61;88.30
18790;BME280;9523;42.650;23.386;2022-09-03T09:22:08;94807.53;;;22.89;80.69
18790;BME280;9523;42.650;23.386;2022-09-03T09:24:40;94800.50;;;24.23;70.77
18790;BME280;9523;42.650;23.386;2022-09-03T09:27:08;94806.84;;;24.08;67.44
18790;BME280;9523;42.650;23.386;2022-09-03T09:29:37;94806.41;;;23.43;70.08
18790;BME280;9523;42.650;23.386;2022-09-03T09:32:07;94812.06;;;23.60;70.39
18790;BME280;9523;42.650;23.386;2022-09-03T09:34:37;94806.97;;;24.55;64.91
18790;BME280;9523;42.650;23.386;2022-09-03T09:37:09;94810.59;;;25.76;57.74
18790;BME280;9523;42.650;23.386;2022-09-03T09:39:39;94801.03;;;24.79;62.48
18790;BME280;9523;42.650;23.386;2022-09-03T09:42:10;94798.91;;;24.99;61.35
18790;BME280;9523;42.650;23.386;2022-09-03T09:44:38;94793.50;;;24.99;60.93
18790;BME280;9523;42.650;23.386;2022-09-03T09:47:09;94800.81;;;24.95;59.98
18790;BME280;9523;42.650;23.386;2022-09-03T09:49:50;94799.41;;;24.68;59.67
18790;BME280;9523;42.650;23.386;2022-09-03T09:52:17;94805.88;;;24.23;62.60
18790;BME280;9523;42.650;23.386;2022-09-03T09:54:47;94804.94;;;24.45;65.15
18790;BME280;9523;42.650;23.386;2022-09-03T09:57:16;94796.78;;;23.71;65.61
18790;BME280;9523;42.650;23.386;2022-09-03T09:59:44;94813.50;;;23.54;68.82
18790;BME280;9523;42.650;23.386;2022-09-03T10:02:13;94807.50;;;23.98;68.23
18790;BME280;9523;42.650;23.386;2022-09-03T10:04:41;94813.41;;;23.47;67.91
18790;BME280;9523;42.650;23.386;2022-09-03T10:07:22;94808.16;;;24.21;65.09
18790;BME280;9523;42.650;23.386;2022-09-03T10:10:05;94809.41;;;25.73;59.97
18790;BME280;9523;42.650;23.386;2022-09-03T10:12:35;94807.84;;;25.72;57.51
18790;BME280;9523;42.650;23.386;2022-09-03T10:15:20;94805.75;;;26.20;54.07
18790;BME280;9523;42.650;23.386;2022-09-03T10:17:55;94791.16;;;26.67;51.68
18790;BME280;9523;42.650;23.386;2022-09-03T10:20:30;94798.13;;;26.75;50.43
18790;BME280;9523;42.650;23.386;2022-09-03T10:23:06;94782.97;;;26.21;54.08
18790;BME280;9523;42.650;23.386;2022-09-03T10:25:41;94791.16;;;25.52;54.26
18790;BME280;9523;42.650;23.386;2022-09-03T10:28:15;94791.50;;;25.47;57.09
18790;BME280;9523;42.650;23.386;2022-09-03T10:30:55;94793.28;;;25.98;57.01
18790;BME280;9523;42.650;23.386;2022-09-03T10:33:26;94785.72;;;26.53;53.38
18790;BME280;9523;42.650;23.386;2022-09-03T10:36:06;94785.41;;;27.11;51.83
18790;BME280;9523;42.650;23.386;2022-09-03T10:38:38;94790.25;;;27.94;47.83
18790;BME280;9523;42.650;23.386;2022-09-03T10:41:18;94786.44;;;27.74;47.88
18790;BME280;9523;42.650;23.386;2022-09-03T10:44:08;94784.78;;;28.77;46.94
18790;BME280;9523;42.650;23.386;2022-09-03T10:46:45;94785.75;;;29.46;45.26
18790;BME280;9523;42.650;23.386;2022-09-03T10:49:29;94785.00;;;30.13;43.73
18790;BME280;9523;42.650;23.386;2022-09-03T10:52:03;94788.50;;;28.98;43.46
18790;BME280;9523;42.650;23.386;2022-09-03T10:54:52;94798.03;;;28.61;44.96
18790;BME280;9523;42.650;23.386;2022-09-03T10:57:31;94787.50;;;28.01;46.23
18790;BME280;9523;42.650;23.386;2022-09-03T11:00:05;94788.78;;;28.52;45.36
18790;BME280;9523;42.650;23.386;2022-09-03T11:05:38;94781.28;;;29.62;42.30
18790;BME280;9523;42.650;23.386;2022-09-03T11:08:11;94782.69;;;29.77;41.26
18790;BME280;9523;42.650;23.386;2022-09-03T11:10:42;94783.69;;;29.57;41.91
18790;BME280;9523;42.650;23.386;2022-09-03T11:13:16;94771.94;;;30.01;41.13
18790;BME280;9523;42.650;23.386;2022-09-03T11:15:50;94786.84;;;29.89;40.76
18790;BME280;9523;42.650;23.386;2022-09-03T11:18:22;94790.53;;;28.83;43.32
18790;BME280;9523;42.650;23.386;2022-09-03T11:20:53;94784.19;;;29.00;43.31
18790;BME280;9523;42.650;23.386;2022-09-03T11:23:23;94788.91;;;29.41;42.11
18790;BME280;9523;42.650;23.386;2022-09-03T11:25:54;94788.91;;;30.39;41.03
18790;BME280;9523;42.650;23.386;2022-09-03T11:28:31;94789.81;;;31.12;39.82
18790;BME280;9523;42.650;23.386;2022-09-03T11:31:16;94785.56;;;30.85;38.53
18790;BME280;9523;42.650;23.386;2022-09-03T11:33:48;94774.09;;;30.97;38.48
18790;BME280;9523;42.650;23.386;2022-09-03T11:36:27;94781.97;;;31.14;38.38
18790;BME280;9523;42.650;23.386;2022-09-03T11:38:55;94767.53;;;30.41;39.07
18790;BME280;9523;42.650;23.386;2022-09-03T11:41:24;94766.16;;;30.56;39.32
18790;BME280;9523;42.650;23.386;2022-09-03T11:43:53;94778.47;;;30.64;38.66
18790;BME280;9523;42.650;23.386;2022-09-03T11:46:28;94775.97;;;30.76;37.55
18790;BME280;9523;42.650;23.386;2022-09-03T11:49:07;94776.31;;;31.05;36.46
18790;BME280;9523;42.650;23.386;2022-09-03T11:51:36;94775.28;;;31.19;36.90
18790;BME280;9523;42.650;23.386;2022-09-03T11:54:05;94791.63;;;31.42;37.25
18790;BME280;9523;42.650;23.386;2022-09-03T11:56:33;94780.06;;;31.35;37.72
18790;BME280;9523;42.650;23.386;2022-09-03T11:59:17;94769.59;;;32.16;36.28
18790;BME280;9523;42.650;23.386;2022-09-03T12:01:48;94777.97;;;32.05;36.10
18790;BME280;9523;42.650;23.386;2022-09-03T12:04:19;94777.50;;;31.90;35.46
18790;BME280;9523;42.650;23.386;2022-09-03T12:07:10;94778.41;;;31.84;35.68
18790;BME280;9523;42.650;23.386;2022-09-03T12:09:56;94763.13;;;32.26;34.75
18790;BME280;9523;42.650;23.386;2022-09-03T12:12:36;94763.22;;;31.63;36.31
18790;BME280;9523;42.650;23.386;2022-09-03T12:15:16;94771.06;;;31.38;35.06
18790;BME280;9523;42.650;23.386;2022-09-03T12:17:51;94764.88;;;30.87;37.38
18790;BME280;9523;42.650;23.386;2022-09-03T12:20:35;94750.28;;;30.74;37.71
18790;BME280;9523;42.650;23.386;2022-09-03T12:23:02;94754.00;;;31.34;37.90
18790;BME280;9523;42.650;23.386;2022-09-03T12:25:29;94755.75;;;31.67;37.27
18790;BME280;9523;42.650;23.386;2022-09-03T12:27:59;94751.13;;;30.94;35.61
18790;BME280;9523;42.650;23.386;2022-09-03T12:30:29;94752.56;;;31.26;34.71
18790;BME280;9523;42.650;23.386;2022-09-03T12:33:03;94749.53;;;30.20;37.45
18790;BME280;9523;42.650;23.386;2022-09-03T12:35:30;94740.56;;;30.50;38.20
18790;BME280;9523;42.650;23.386;2022-09-03T12:37:57;94752.88;;;29.33;38.36
18790;BME280;9523;42.650;23.386;2022-09-03T12:40:26;94748.47;;;29.43;38.96
18790;BME280;9523;42.650;23.386;2022-09-03T12:42:54;94736.75;;;29.87;39.63
18790;BME280;9523;42.650;23.386;2022-09-03T12:45:23;94743.31;;;30.19;39.54
18790;BME280;9523;42.650;23.386;2022-09-03T12:47:52;94740.94;;;30.75;38.98
18790;BME280;9523;42.650;23.386;2022-09-03T12:50:20;94743.78;;;31.38;37.38
18790;BME280;9523;42.650;23.386;2022-09-03T12:52:50;94745.88;;;30.84;36.98
18790;BME280;9523;42.650;23.386;2022-09-03T12:55:25;94735.75;;;31.50;36.72
18790;BME280;9523;42.650;23.386;2022-09-03T12:57:55;94731.16;;;30.54;37.35
18790;BME280;9523;42.650;23.386;2022-09-03T13:00:28;94738.09;;;30.82;37.39
18790;BME280;9523;42.650;23.386;2022-09-03T13:02:59;94738.50;;;31.07;36.21
18790;BME280;9523;42.650;23.386;2022-09-03T13:05:31;94733.88;;;31.28;36.58
18790;BME280;9523;42.650;23.386;2022-09-03T13:08:02;94729.50;;;31.10;35.71
18790;BME280;9523;42.650;23.386;2022-09-03T13:10:34;94732.19;;;30.87;37.14
18790;BME280;9523;42.650;23.386;2022-09-03T13:13:06;94719.16;;;31.21;36.58
18790;BME280;9523;42.650;23.386;2022-09-03T13:15:59;94711.19;;;31.74;35.71
18790;BME280;9523;42.650;23.386;2022-09-03T13:18:39;94704.25;;;32.08;36.65